Time;durP1;ratioP1;P1;durP2;ratioP2;P2;SDS_P1;SDS_P2;PMS_P1;PMS_P2;Temp;Humidity;BMP_temperature;BMP_pressure;BME280_temperature;BME280_humidity;BME280_pressure;Samples;Min_cycle;Max_cycle;Signal;HPM_P1;HPM_P2
2021/03/01 00:00:11;;;;;;;21.25;11.07;;;;;;;4.58;83.23;102159.25;5098524;28;20048;-84
2021/03/01 00:02:39;;;;;;;18.27;9.65;;;;;;;4.57;83.16;102154.88;5100561;28;20408;-84
2021/03/01 00:05:07;;;;;;;21.55;9.93;;;;;;;4.54;83.47;102149.63;5083717;28;20040;-85
2021/03/01 00:07:33;;;;;;;17.90;10.20;;;;;;;4.49;83.61;102145.22;5082654;28;20063;-83
2021/03/01 00:10:00;;;;;;;19.80;10.38;;;;;;;4.47;83.51;102147.84;5097363;28;20159;-84
2021/03/01 00:12:27;;;;;;;18.98;10.43;;;;;;;4.47;83.18;102154.81;5085781;28;20040;-82
2021/03/01 00:14:54;;;;;;;22.67;10.75;;;;;;;4.44;83.62;102155.69;5089371;28;20044;-82
2021/03/01 00:17:22;;;;;;;19.77;10.13;;;;;;;4.40;83.33;102150.44;5109669;28;20049;-84
2021/03/01 00:19:49;;;;;;;19.08;10.35;;;;;;;4.39;83.18;102144.31;5101857;28;20116;-86
2021/03/01 00:22:17;;;;;;;21.13;10.50;;;;;;;4.35;83.49;102155.63;5097911;28;20063;-85
2021/03/01 00:24:43;;;;;;;26.05;11.20;;;;;;;4.38;83.54;102157.41;5112745;28;20040;-85
2021/03/01 00:27:10;;;;;;;20.83;10.45;;;;;;;4.36;82.87;102153.88;5094001;28;20155;-85
2021/03/01 00:29:37;;;;;;;20.23;10.38;;;;;;;4.29;83.20;102150.34;5092400;28;20057;-85
2021/03/01 00:32:06;;;;;;;21.02;10.00;;;;;;;4.32;83.51;102152.09;5092332;28;20051;-87
2021/03/01 00:34:32;;;;;;;19.00;10.15;;;;;;;4.29;83.89;102150.34;5116179;28;20093;-86
2021/03/01 00:36:59;;;;;;;20.38;10.00;;;;;;;4.23;83.50;102145.06;5089489;28;20053;-87
2021/03/01 00:39:25;;;;;;;19.30;10.32;;;;;;;4.25;83.78;102142.47;5109638;28;20028;-86
2021/03/01 00:41:51;;;;;;;20.48;10.25;;;;;;;4.24;84.33;102152.06;5091658;28;20752;-87
2021/03/01 00:44:21;;;;;;;20.70;9.60;;;;;;;4.24;83.92;102165.19;5095484;28;20705;-88
2021/03/01 00:46:48;;;;;;;18.17;9.50;;;;;;;4.21;83.98;102149.41;5091988;28;20048;-87
2021/03/01 00:49:16;;;;;;;22.08;9.77;;;;;;;4.21;83.82;102159.91;5097870;28;20060;-86
2021/03/01 00:51:42;;;;;;;14.43;9.02;;;;;;;4.20;83.58;102148.53;5115904;28;20040;-84
2021/03/01 00:54:09;;;;;;;17.67;9.13;;;;;;;4.20;83.81;102151.16;5109883;28;20052;-85
2021/03/01 00:56:36;;;;;;;17.27;9.48;;;;;;;4.18;83.87;102152.00;5092514;28;20055;-82
2021/03/01 00:59:05;;;;;;;17.70;9.93;;;;;;;4.19;83.70;102145.91;5101480;28;20046;-85
2021/03/01 01:01:34;;;;;;;20.42;9.82;;;;;;;4.15;84.36;102144.13;5096690;28;20438;-84
2021/03/01 01:04:07;;;;;;;18.60;9.82;;;;;;;4.14;84.14;102142.38;5086976;28;20058;-86
2021/03/01 01:06:42;;;;;;;19.35;10.18;;;;;;;4.17;83.68;102138.03;5104219;28;20111;-85
2021/03/01 01:09:09;;;;;;;18.67;9.93;;;;;;;4.17;83.77;102139.78;5095488;28;20100;-83
2021/03/01 01:11:37;;;;;;;20.42;10.02;;;;;;;4.15;83.73;102138.88;5105225;28;20052;-85
2021/03/01 01:14:07;;;;;;;20.67;9.68;;;;;;;4.15;83.47;102146.75;5104052;28;20214;-88
2021/03/01 01:16:35;;;;;;;16.98;9.82;;;;;;;4.11;83.46;102140.59;5099686;28;20131;-85
2021/03/01 01:19:04;;;;;;;19.10;9.93;;;;;;;4.07;83.86;102145.81;5087301;28;20263;-86
2021/03/01 01:21:30;;;;;;;19.35;9.45;;;;;;;4.04;83.66;102141.44;5080374;28;20044;-86
2021/03/01 01:23:56;;;;;;;16.58;9.35;;;;;;;4.02;83.71;102142.28;5093000;28;20059;-84
2021/03/01 01:26:23;;;;;;;23.48;9.88;;;;;;;3.96;83.58;102132.63;5085956;28;20041;-84
2021/03/01 01:28:49;;;;;;;18.67;9.55;;;;;;;3.90;83.63;102132.59;5080894;28;20151;-83
2021/03/01 01:31:16;;;;;;;20.05;10.70;;;;;;;3.91;83.47;102141.31;5083792;28;20097;-84
2021/03/01 01:33:43;;;;;;;20.15;9.48;;;;;;;3.85;83.94;102136.91;5098007;28;20074;-83
2021/03/01 01:36:10;;;;;;;19.00;9.50;;;;;;;3.84;84.25;102130.78;5106035;28;20063;-86
2021/03/01 01:38:50;;;;;;;18.60;9.75;;;;;;;3.82;84.57;102129.00;5104138;28;20111;-86
2021/03/01 01:41:17;;;;;;;20.33;10.10;;;;;;;3.84;84.31;102127.28;5082120;28;20040;-86
2021/03/01 01:43:43;;;;;;;16.65;9.45;;;;;;;3.82;84.36;102129.00;5099000;28;20183;-85
2021/03/01 01:46:11;;;;;;;17.17;9.82;;;;;;;3.79;84.58;102127.22;5089631;28;20051;-84
2021/03/01 01:48:37;;;;;;;19.35;9.88;;;;;;;3.77;84.53;102129.00;5078105;28;20040;-84
2021/03/01 01:51:04;;;;;;;17.85;9.35;;;;;;;3.76;84.79;102132.47;5086147;28;20057;-86
2021/03/01 01:53:32;;;;;;;21.52;9.77;;;;;;;3.71;84.75;102120.19;5086871;28;20067;-84
2021/03/01 01:56:00;;;;;;;19.88;10.55;;;;;;;3.69;84.85;102125.41;5091218;28;20060;-85
2021/03/01 01:58:27;;;;;;;21.17;10.40;;;;;;;3.67;85.32;102124.50;5090170;28;20050;-84
2021/03/01 02:00:53;;;;;;;19.92;9.90;;;;;;;3.63;85.35;102122.72;5100474;28;20145;-85
2021/03/01 02:03:49;;;;;;;22.63;10.57;;;;;;;3.63;85.14;102127.97;5082508;28;20046;-84
2021/03/01 02:06:36;;;;;;;20.70;10.38;;;;;;;3.63;85.76;102125.34;5103913;28;20055;-85
2021/03/01 02:09:12;;;;;;;19.42;9.80;;;;;;;3.63;84.53;102125.34;5095116;28;20044;-83
2021/03/01 02:12:08;;;;;;;20.63;10.38;;;;;;;3.61;84.94;102127.09;5103373;28;20299;-83
2021/03/01 02:14:52;;;;;;;23.67;11.38;;;;;;;3.55;85.14;102113.94;5083668;28;20047;-83
2021/03/01 02:17:18;;;;;;;22.95;9.80;;;;;;;3.52;85.02;102121.75;5087407;28;20064;-86
2021/03/01 02:19:45;;;;;;;21.95;10.73;;;;;;;3.49;85.29;102112.13;5105089;28;20052;-87
2021/03/01 02:22:11;;;;;;;19.02;10.52;;;;;;;3.45;86.21;102119.97;5104604;28;20078;-84
2021/03/01 02:24:51;;;;;;;20.10;10.48;;;;;;;3.39;85.63;102107.69;5092128;28;20048;-84
2021/03/01 02:27:31;;;;;;;22.55;10.68;;;;;;;3.37;86.02;102108.50;5098132;28;20064;-84
2021/03/01 02:30:06;;;;;;;23.23;10.63;;;;;;;3.39;86.34;102106.78;5078967;28;20557;-85
2021/03/01 02:32:36;;;;;;;22.38;11.80;;;;;;;3.40;86.33;102109.44;5098123;28;20070;-86
2021/03/01 02:35:06;;;;;;;19.77;11.05;;;;;;;3.38;86.48;102107.66;5097546;28;20040;-87
2021/03/01 02:37:38;;;;;;;18.90;10.13;;;;;;;3.38;86.51;102105.03;5094333;28;20337;-85
2021/03/01 02:40:06;;;;;;;19.85;10.05;;;;;;;3.40;86.43;102108.56;5078895;28;20028;-85
2021/03/01 02:42:37;;;;;;;21.00;10.52;;;;;;;3.40;86.04;102103.31;5092949;28;20040;-85
2021/03/01 02:45:06;;;;;;;20.33;10.18;;;;;;;3.41;85.74;102105.06;5100954;28;20032;-86
2021/03/01 02:47:37;;;;;;;20.20;10.18;;;;;;;3.38;86.68;102100.69;5087407;28;20046;-84
2021/03/01 02:50:06;;;;;;;18.75;9.52;;;;;;;3.38;86.38;102105.91;5080817;28;20040;-87
2021/03/01 02:52:34;;;;;;;22.13;10.80;;;;;;;3.37;86.56;102100.66;5092326;28;20054;-87
2021/03/01 02:55:23;;;;;;;20.35;10.60;;;;;;;3.38;86.55;102113.78;5114410;28;20259;-86
2021/03/01 02:58:07;;;;;;;22.35;10.52;;;;;;;3.37;86.22;102108.50;5105273;28;20037;-87
2021/03/01 03:00:38;;;;;;;21.65;10.13;;;;;;;3.38;86.71;102107.66;5104310;28;20083;-83
2021/03/01 03:03:09;;;;;;;22.38;10.40;;;;;;;3.36;86.69;102106.75;5096683;28;20048;-84
2021/03/01 03:05:38;;;;;;;24.33;10.65;;;;;;;3.35;86.39;102111.13;5066902;28;20052;-85
2021/03/01 03:08:06;;;;;;;25.23;11.18;;;;;;;3.34;86.38;102111.97;5083508;28;20109;-85
2021/03/01 03:10:33;;;;;;;23.75;10.80;;;;;;;3.32;86.31;102118.06;5097504;28;20045;-84
2021/03/01 03:13:01;;;;;;;22.40;10.75;;;;;;;3.28;86.61;102113.69;5081878;28;20040;-83
2021/03/01 03:15:29;;;;;;;23.55;11.30;;;;;;;3.26;86.95;102121.50;5086331;28;20163;-85
2021/03/01 03:17:57;;;;;;;22.00;11.07;;;;;;;3.24;86.29;102117.13;5106721;28;20044;-89
2021/03/01 03:20:25;;;;;;;22.70;11.82;;;;;;;3.22;86.83;102108.38;5103709;28;20079;-85
2021/03/01 03:22:53;;;;;;;22.48;11.45;;;;;;;3.18;86.83;102112.69;5101406;28;20062;-84
2021/03/01 03:25:20;;;;;;;23.27;11.45;;;;;;;3.15;86.81;102110.91;5109065;28;20126;-82
2021/03/01 03:27:48;;;;;;;23.20;11.43;;;;;;;3.14;86.87;102110.91;5105236;28;20048;-84
2021/03/01 03:30:21;;;;;;;27.52;12.40;;;;;;;3.14;86.66;102110.91;5100182;28;20054;-83
2021/03/01 03:32:49;;;;;;;21.42;11.15;;;;;;;3.11;86.98;102105.66;5097965;28;20047;-85
2021/03/01 03:35:19;;;;;;;22.25;11.15;;;;;;;3.15;87.06;102113.53;5115555;28;20052;-83
2021/03/01 03:37:51;;;;;;;26.25;11.98;;;;;;;3.13;87.07;102106.53;5083276;28;20044;-85
2021/03/01 03:40:19;;;;;;;23.85;11.35;;;;;;;3.11;87.03;102101.28;5108829;28;20055;-83
2021/03/01 03:42:53;;;;;;;24.42;12.10;;;;;;;3.09;87.04;102094.28;5105179;28;20127;-85
2021/03/01 03:45:20;;;;;;;23.35;11.60;;;;;;;3.10;87.46;102101.28;5109980;28;20115;-83
2021/03/01 03:47:52;;;;;;;23.73;11.45;;;;;;;3.09;87.37;102105.63;5099054;28;20105;-85
2021/03/01 03:50:22;;;;;;;23.60;11.10;;;;;;;3.08;87.18;102102.97;5104857;28;20045;-84
2021/03/01 03:52:54;;;;;;;24.65;12.02;;;;;;;3.08;87.18;102103.88;5110165;28;20047;-86
2021/03/01 03:55:22;;;;;;;22.45;11.98;;;;;;;3.07;87.75;102096.88;5116867;28;20054;-89
2021/03/01 03:58:04;;;;;;;25.02;12.15;;;;;;;3.08;87.57;102095.13;5123362;28;20044;-83
2021/03/01 04:00:33;;;;;;;25.25;12.18;;;;;;;3.05;87.48;102098.59;5130973;28;20070;-82
2021/03/01 04:03:06;;;;;;;26.27;12.88;;;;;;;3.04;87.53;102099.44;5129360;28;20047;-83
2021/03/01 04:05:34;;;;;;;24.05;12.85;;;;;;;2.97;87.62;102099.38;5115826;28;20050;-84
2021/03/01 04:08:08;;;;;;;27.42;12.90;;;;;;;2.95;87.75;102099.34;5115044;28;20063;-84
2021/03/01 04:10:36;;;;;;;27.50;12.82;;;;;;;2.95;87.75;102104.59;5105580;28;20447;-85
2021/03/01 04:13:15;;;;;;;28.98;13.82;;;;;;;2.96;88.07;102095.00;5109597;28;20526;-85
2021/03/01 04:15:51;;;;;;;25.63;13.13;;;;;;;2.97;88.20;102108.13;5107044;28;20068;-87
2021/03/01 04:18:28;;;;;;;27.90;12.98;;;;;;;2.96;87.71;102097.63;5109065;28;20071;-85
2021/03/01 04:20:56;;;;;;;27.70;13.57;;;;;;;2.99;88.56;102106.38;5088732;28;20074;-87
2021/03/01 04:23:23;;;;;;;27.70;13.10;;;;;;;2.99;87.81;102101.13;5100827;28;20498;-84
2021/03/01 04:25:52;;;;;;;25.02;13.45;;;;;;;2.97;87.77;102102.00;5111761;28;20064;-83
2021/03/01 04:28:20;;;;;;;29.25;14.38;;;;;;;2.98;88.16;102095.91;5088110;28;20044;-85
2021/03/01 04:30:48;;;;;;;31.25;14.88;;;;;;;2.99;88.22;102108.97;5112835;28;20120;-86
2021/03/01 04:33:17;;;;;;;28.52;14.90;;;;;;;2.99;88.05;102108.13;5101947;28;20051;-83
2021/03/01 04:35:48;;;;;;;29.30;14.60;;;;;;;2.97;88.29;102107.22;5085340;28;20048;-86
2021/03/01 04:38:15;;;;;;;31.67;15.23;;;;;;;3.00;88.27;102112.47;5091601;28;20158;-86
2021/03/01 04:40:42;;;;;;;33.40;16.05;;;;;;;2.96;87.89;102111.59;5109095;28;20040;-86
2021/03/01 04:43:11;;;;;;;29.55;14.95;;;;;;;2.94;88.21;102110.69;5100885;28;20388;-85
2021/03/01 04:45:44;;;;;;;28.58;14.95;;;;;;;2.90;88.36;102114.13;5095653;28;20480;-84
2021/03/01 04:48:13;;;;;;;27.30;14.38;;;;;;;2.85;88.77;102120.16;5102025;28;20048;-86
2021/03/01 04:50:42;;;;;;;31.35;15.77;;;;;;;2.86;88.57;102119.28;5077383;28;20418;-85
2021/03/01 04:53:10;;;;;;;28.77;16.08;;;;;;;2.87;88.95;102121.03;5096422;28;20051;-87
2021/03/01 04:55:38;;;;;;;34.55;15.73;;;;;;;2.83;88.68;102127.13;5104373;28;20051;-84
2021/03/01 04:58:07;;;;;;;31.80;16.08;;;;;;;2.83;89.22;102117.53;5081590;28;20052;-87
2021/03/01 05:00:35;;;;;;;33.00;16.30;;;;;;;2.85;88.97;102123.63;5098510;28;20054;-85
2021/03/01 05:03:03;;;;;;;34.60;14.80;;;;;;;2.80;89.09;102121.00;5107599;28;20101;-85
2021/03/01 05:05:30;;;;;;;34.40;16.45;;;;;;;2.84;88.73;102121.88;5101622;28;20059;-87
2021/03/01 05:08:02;;;;;;;31.75;16.05;;;;;;;2.85;88.38;102120.16;5086706;28;20048;-89
2021/03/01 05:10:33;;;;;;;31.63;14.98;;;;;;;2.84;88.83;102121.88;5101196;28;20115;-85
2021/03/01 05:12:59;;;;;;;27.85;15.68;;;;;;;2.79;88.74;102120.97;5083353;28;20047;-84
2021/03/01 05:15:27;;;;;;;30.15;16.05;;;;;;;2.82;88.22;102123.63;5103446;28;20066;-85
2021/03/01 05:17:53;;;;;;;33.33;16.48;;;;;;;2.76;88.76;102123.53;5085822;28;20050;-86
2021/03/01 05:20:20;;;;;;;36.22;16.23;;;;;;;2.69;88.67;102119.97;5092103;28;20142;-85
2021/03/01 05:22:47;;;;;;;30.40;15.48;;;;;;;2.67;88.50;102128.66;5100250;28;20044;-87
2021/03/01 05:25:14;;;;;;;39.75;16.88;;;;;;;2.61;89.04;102131.19;5102290;28;20054;-85
2021/03/01 05:27:40;;;;;;;33.78;16.50;;;;;;;2.55;88.87;102128.47;5080351;28;20398;-86
2021/03/01 05:30:10;;;;;;;34.97;16.40;;;;;;;2.50;89.42;102127.56;5100394;28;20051;-82
2021/03/01 05:32:38;;;;;;;35.05;17.33;;;;;;;2.49;89.01;102129.31;5105910;28;20145;-83
2021/03/01 05:35:07;;;;;;;31.27;17.27;;;;;;;2.42;88.96;102133.56;5102534;28;20113;-88
2021/03/01 05:37:35;;;;;;;38.60;17.40;;;;;;;2.36;89.42;102127.38;5106789;28;20082;-86
2021/03/01 05:40:04;;;;;;;35.08;16.88;;;;;;;2.30;89.92;102116.81;5111348;28;20063;-85
2021/03/01 05:42:33;;;;;;;34.75;17.35;;;;;;;2.29;90.00;102131.63;5071665;28;20052;-86
2021/03/01 05:45:00;;;;;;;33.97;17.45;;;;;;;2.27;89.96;102133.34;5098014;28;20052;-85
2021/03/01 05:47:26;;;;;;;31.50;16.67;;;;;;;2.23;89.48;102131.53;5080829;28;20039;-85
2021/03/01 05:49:58;;;;;;;32.70;16.27;;;;;;;2.23;90.02;102126.28;5088696;28;20744;-86
2021/03/01 05:52:28;;;;;;;34.88;16.75;;;;;;;2.21;90.03;102130.63;5094047;28;20063;-86
2021/03/01 05:54:56;;;;;;;31.48;15.60;;;;;;;2.19;89.88;102134.09;5086199;28;20147;-85
2021/03/01 05:57:23;;;;;;;30.50;17.42;;;;;;;2.16;89.73;102129.69;5092469;28;20048;-85
2021/03/01 05:59:50;;;;;;;35.22;17.88;;;;;;;2.11;89.70;102134.84;5100484;28;20048;-86
2021/03/01 06:02:17;;;;;;;31.88;17.42;;;;;;;2.07;89.48;102137.38;5082843;28;20060;-87
2021/03/01 06:04:44;;;;;;;33.42;17.20;;;;;;;2.06;90.11;102143.44;5079991;28;20051;-87
2021/03/01 06:07:13;;;;;;;31.45;16.45;;;;;;;1.99;89.53;102152.94;5105868;28;20063;-86
2021/03/01 06:09:41;;;;;;;32.72;16.80;;;;;;;1.92;89.89;102160.66;5115940;28;20058;-83
2021/03/01 06:12:10;;;;;;;37.90;18.08;;;;;;;1.79;89.60;102154.34;5096822;28;20044;-85
2021/03/01 06:14:36;;;;;;;36.83;18.52;;;;;;;1.71;90.31;102150.75;5083629;28;20045;-87
2021/03/01 06:17:08;;;;;;;40.65;18.38;;;;;;;1.62;90.83;102151.44;5099639;28;20064;-86
2021/03/01 06:19:56;;;;;;;37.30;18.92;;;;;;;1.55;91.04;102159.16;5090129;28;20043;-85
2021/03/01 06:22:24;;;;;;;38.47;17.67;;;;;;;1.52;91.28;102165.19;5081771;28;20099;-86
2021/03/01 06:25:14;;;;;;;34.63;17.63;;;;;;;1.51;91.56;102165.16;5073716;28;20040;-86
2021/03/01 06:27:55;;;;;;;28.02;14.02;;;;;;;1.51;91.77;102168.66;5086597;28;20052;-84
2021/03/01 06:30:36;;;;;;;36.03;18.25;;;;;;;1.50;91.96;102171.22;5076701;28;20059;-86
2021/03/01 06:33:15;;;;;;;35.30;18.60;;;;;;;1.51;92.48;102179.09;5083974;28;20063;-85
2021/03/01 06:35:51;;;;;;;34.58;18.15;;;;;;;1.58;92.24;102175.72;5098309;28;20062;-85
2021/03/01 06:38:34;;;;;;;35.10;18.45;;;;;;;1.60;92.01;102178.38;5086396;28;20041;-85
2021/03/01 06:41:22;;;;;;;35.33;18.92;;;;;;;1.69;92.42;102179.44;5106095;28;20052;-84
2021/03/01 06:44:02;;;;;;;32.10;17.38;;;;;;;1.72;92.11;102179.50;5113287;28;20046;-86
2021/03/01 06:46:31;;;;;;;36.80;18.73;;;;;;;1.66;91.48;102186.31;5075791;28;20421;-85
2021/03/01 06:49:13;;;;;;;31.60;17.48;;;;;;;1.62;91.88;102184.50;5070618;28;20052;-87
2021/03/01 06:51:42;;;;;;;33.45;17.90;;;;;;;1.68;92.05;102177.66;5091591;28;20070;-85
2021/03/01 06:54:11;;;;;;;34.55;18.27;;;;;;;1.73;92.63;102168.16;5094295;28;20040;-85
2021/03/01 06:56:47;;;;;;;34.13;18.50;;;;;;;1.80;92.78;102170.91;5080028;28;20062;-86
2021/03/01 06:59:39;;;;;;;34.30;19.00;;;;;;;1.86;92.77;102178.84;5109214;28;20087;-89
2021/03/01 07:02:06;;;;;;;33.67;17.98;;;;;;;1.86;91.96;102178.84;5078284;28;20048;-85
2021/03/01 07:04:32;;;;;;;32.88;17.73;;;;;;;1.91;91.57;102188.50;5074701;28;20073;-85
2021/03/01 07:07:07;;;;;;;36.95;19.92;;;;;;;1.92;91.35;102192.88;5072817;28;20070;-87
2021/03/01 07:09:34;;;;;;;34.17;18.30;;;;;;;1.98;91.74;102189.50;5088362;28;20074;-85
2021/03/01 07:12:01;;;;;;;33.17;17.50;;;;;;;2.01;91.05;102193.03;5109543;28;20045;-86
2021/03/01 07:14:30;;;;;;;35.05;18.42;;;;;;;2.02;90.94;102194.81;5095091;28;20095;-83
2021/03/01 07:16:59;;;;;;;34.75;18.08;;;;;;;2.14;90.64;102203.69;5096054;28;20048;-85
2021/03/01 07:19:32;;;;;;;32.72;17.45;;;;;;;2.14;91.13;102203.69;5093976;28;20058;-83
2021/03/01 07:22:07;;;;;;;30.85;18.25;;;;;;;2.18;90.78;102205.50;5082697;28;20076;-83
2021/03/01 07:24:38;;;;;;;33.35;17.20;;;;;;;2.19;90.31;102208.16;5092203;28;20143;-85
2021/03/01 07:27:05;;;;;;;34.17;18.42;;;;;;;2.26;90.63;102203.88;5105608;28;20060;-85
2021/03/01 07:29:36;;;;;;;33.90;17.45;;;;;;;2.28;90.72;102197.81;5084779;28;20188;-87
2021/03/01 07:32:12;;;;;;;32.38;16.83;;;;;;;2.36;89.86;102201.44;5100318;28;20091;-83
2021/03/01 07:34:40;;;;;;;34.50;17.70;;;;;;;2.49;90.30;102207.75;5100312;28;20044;-85
2021/03/01 07:37:11;;;;;;;31.13;16.35;;;;;;;2.46;89.40;102210.31;5111475;28;20430;-86
2021/03/01 07:39:40;;;;;;;29.17;17.50;;;;;;;2.46;89.34;102215.53;5094990;28;20087;-85
2021/03/01 07:42:11;;;;;;;28.23;16.52;;;;;;;2.40;89.77;102194.50;5103982;28;20062;-85
2021/03/01 07:44:39;;;;;;;26.77;15.80;;;;;;;2.47;89.04;102214.69;5088231;28;20048;-85
2021/03/01 07:47:08;;;;;;;29.33;15.43;;;;;;;2.45;89.34;102214.66;5110813;28;20134;-83
2021/03/01 07:49:48;;;;;;;27.90;15.70;;;;;;;2.45;88.75;102209.44;5082367;28;20075;-85
2021/03/01 07:52:20;;;;;;;27.13;15.48;;;;;;;2.52;89.02;102213.00;5104691;28;20055;-84
2021/03/01 07:54:56;;;;;;;25.58;15.43;;;;;;;2.54;88.79;102199.94;5104887;28;20171;-85
2021/03/01 07:57:26;;;;;;;25.23;15.35;;;;;;;2.61;88.44;102217.50;5083677;28;20402;-87
2021/03/01 07:59:57;;;;;;;26.45;15.85;;;;;;;2.77;88.50;102214.25;5099530;28;20044;-86
2021/03/01 08:02:33;;;;;;;26.30;16.13;;;;;;;3.01;88.90;102206.72;5082620;28;20036;-84
2021/03/01 08:05:31;;;;;;;32.47;15.35;;;;;;;3.11;87.54;102213.84;5084749;28;20078;-86
2021/03/01 08:07:59;;;;;;;26.73;15.00;;;;;;;3.09;86.12;102207.69;5103234;28;20384;-90
2021/03/01 08:10:28;;;;;;;26.67;16.05;;;;;;;3.24;86.84;102211.38;5112989;28;20056;-85
2021/03/01 08:13:14;;;;;;;23.23;13.63;;;;;;;3.52;86.04;102210.81;5111367;28;20036;-83
2021/03/01 08:15:44;;;;;;;23.13;13.55;;;;;;;3.80;85.35;102214.59;5105223;28;20032;-85
2021/03/01 08:18:13;;;;;;;24.83;14.75;;;;;;;3.95;84.21;102208.59;5106604;28;20532;-85
2021/03/01 08:20:43;;;;;;;23.35;13.57;;;;;;;4.16;83.21;102214.03;5083527;28;20072;-85
2021/03/01 08:23:18;;;;;;;21.50;13.85;;;;;;;4.55;82.56;102208.22;5107284;28;20052;-84
2021/03/01 08:25:52;;;;;;;22.05;13.65;;;;;;;4.93;79.04;102206.69;5107225;28;20135;-86
2021/03/01 08:28:25;;;;;;;18.73;12.57;;;;;;;5.28;78.51;102212.09;5090314;28;20051;-84
2021/03/01 08:30:53;;;;;;;19.95;13.15;;;;;;;5.82;77.41;102207.88;5098291;28;20071;-85
2021/03/01 08:33:29;;;;;;;18.98;12.25;;;;;;;6.17;73.81;102213.16;5093420;28;20089;-85
2021/03/01 08:36:01;;;;;;;17.80;11.30;;;;;;;6.40;71.62;102207.91;5093175;28;20052;-87
2021/03/01 08:38:43;;;;;;;17.50;11.55;;;;;;;6.44;72.49;102209.66;5086727;28;20068;-86
2021/03/01 08:41:11;;;;;;;18.00;12.27;;;;;;;6.46;71.66;102209.63;5105058;28;20131;-85
2021/03/01 08:43:53;;;;;;;16.42;11.32;;;;;;;6.23;71.83;102205.28;5111806;28;20052;-85
2021/03/01 08:46:22;;;;;;;16.25;11.75;;;;;;;5.72;72.49;102218.34;5080755;28;20045;-85
2021/03/01 08:48:57;;;;;;;17.90;11.77;;;;;;;5.18;74.62;102212.06;5096551;28;20050;-88
2021/03/01 08:51:35;;;;;;;17.48;12.13;;;;;;;4.85;76.78;102213.66;5104498;28;20100;-87
2021/03/01 08:54:04;;;;;;;19.52;12.15;;;;;;;4.70;77.77;102213.59;5082162;28;20044;-85
2021/03/01 08:56:40;;;;;;;18.02;12.13;;;;;;;4.53;78.24;102209.97;5089883;28;20040;-85
2021/03/01 08:59:21;;;;;;;19.75;12.63;;;;;;;4.48;79.28;102212.56;5080355;28;20048;-82
2021/03/01 09:01:49;;;;;;;22.52;12.40;;;;;;;4.44;79.12;102221.25;5097514;28;20385;-88
2021/03/01 09:04:15;;;;;;;20.52;12.73;;;;;;;4.39;80.57;102216.88;5115076;28;20027;-88
2021/03/01 09:06:44;;;;;;;17.58;11.52;;;;;;;4.44;80.15;102216.00;5106270;28;20107;-83
2021/03/01 09:09:10;;;;;;;16.70;11.60;;;;;;;4.45;79.62;102217.78;5099350;28;20046;-84
2021/03/01 09:11:37;;;;;;;16.58;11.18;;;;;;;4.39;78.98;102228.22;5100976;28;20035;-82
2021/03/01 09:14:08;;;;;;;16.23;10.73;;;;;;;4.34;79.63;102208.94;5093107;28;20545;-85
2021/03/01 09:16:44;;;;;;;17.77;11.63;;;;;;;4.46;79.47;102219.53;5107977;28;20056;-85
2021/03/01 09:19:23;;;;;;;16.60;11.32;;;;;;;4.50;79.15;102221.31;5100914;28;20451;-85
2021/03/01 09:21:55;;;;;;;17.30;11.27;;;;;;;4.56;78.64;102216.09;5091007;28;20149;-84
2021/03/01 09:24:23;;;;;;;14.98;10.48;;;;;;;4.62;78.31;102220.50;5076662;28;20117;-87
2021/03/01 09:26:52;;;;;;;17.40;10.88;;;;;;;4.68;78.67;102217.94;5088746;28;20116;-84
2021/03/01 09:29:19;;;;;;;17.40;10.50;;;;;;;4.80;78.01;102220.63;5077994;28;20057;-85
2021/03/01 09:31:54;;;;;;;16.45;10.43;;;;;;;4.85;77.28;102221.53;5077456;28;20056;-86
2021/03/01 09:34:27;;;;;;;16.63;10.90;;;;;;;4.98;77.67;102211.97;5095839;28;20086;-85
2021/03/01 09:37:11;;;;;;;16.55;10.52;;;;;;;5.17;76.76;102212.94;5071670;28;20054;-84
2021/03/01 09:39:42;;;;;;;18.45;10.93;;;;;;;5.21;76.00;102205.06;5080213;28;20822;-87
2021/03/01 09:42:09;;;;;;;;;;;;;;;5.33;75.95;102200.75;5063265;28;20052;-86
2021/03/01 09:44:39;;;;;;;15.70;10.43;;;;;;;5.45;76.41;102201.66;5093062;28;20672;-85
2021/03/01 09:47:11;;;;;;;14.45;10.55;;;;;;;5.60;76.19;102200.81;5097784;28;20044;-85
2021/03/01 09:49:42;;;;;;;19.08;12.63;;;;;;;5.82;76.33;102199.13;5096292;28;20131;-85
2021/03/01 09:52:11;;;;;;;15.15;10.38;;;;;;;5.97;75.12;102192.16;5090221;28;20053;-86
2021/03/01 09:54:40;;;;;;;15.70;11.07;;;;;;;6.13;75.47;102194.78;5080489;28;20073;-86
2021/03/01 09:57:10;;;;;;;14.85;9.68;;;;;;;6.25;74.01;102184.25;5090344;28;20051;-82
2021/03/01 09:59:39;;;;;;;14.88;9.90;;;;;;;6.34;73.65;102186.84;5077661;28;20052;-87
2021/03/01 10:02:22;;;;;;;14.02;9.63;;;;;;;6.40;73.81;102185.97;5086138;28;20043;-85
2021/03/01 10:04:51;;;;;;;15.30;9.75;;;;;;;6.56;73.00;102183.31;5101614;28;20036;-85
2021/03/01 10:07:36;;;;;;;12.82;9.57;;;;;;;6.76;72.52;102174.50;5106389;28;20103;-86
2021/03/01 10:10:22;;;;;;;15.25;9.80;;;;;;;6.88;71.47;102177.97;5106165;28;20063;-87
2021/03/01 10:12:51;;;;;;;12.32;8.85;;;;;;;6.98;71.07;102181.44;5081994;28;20032;-87
2021/03/01 10:15:20;;;;;;;12.38;9.05;;;;;;;7.08;71.08;102180.53;5106931;28;20051;-84
2021/03/01 10:18:30;;;;;;;12.65;9.60;;;;;;;7.04;71.04;102178.78;5052046;28;20038;-84
2021/03/01 10:21:06;;;;;;;15.63;9.80;;;;;;;7.11;70.66;102175.22;5068419;28;20095;-85
2021/03/01 10:24:06;;;;;;;14.63;9.85;;;;;;;7.23;69.85;102169.06;5045333;28;20272;-86
2021/03/01 10:27:00;;;;;;;15.52;9.75;;;;;;;7.37;69.87;102170.72;5063391;28;20045;-86
2021/03/01 10:29:31;;;;;;;14.00;9.52;;;;;;;7.49;68.65;102171.53;5049731;28;20041;-86
2021/03/01 10:31:59;;;;;;;13.80;9.90;;;;;;;7.55;68.19;102168.88;5051152;28;20095;-85
2021/03/01 10:34:35;;;;;;;14.63;9.68;;;;;;;7.61;67.91;102172.31;5030369;28;20072;-86
2021/03/01 10:37:10;;;;;;;12.73;9.52;;;;;;;7.74;68.31;102165.19;5058346;28;20124;-86
2021/03/01 10:39:43;;;;;;;12.88;8.93;;;;;;;7.91;67.60;102165.97;5040526;28;20048;-88
2021/03/01 10:42:24;;;;;;;15.90;9.65;;;;;;;8.08;67.72;102163.19;5081362;28;20111;-87
2021/03/01 10:45:05;;;;;;;17.67;9.10;;;;;;;8.14;66.19;102163.16;5127372;27;20047;-87
2021/03/01 10:47:34;;;;;;;13.95;9.77;;;;;;;8.16;66.61;102160.50;5076960;28;20108;-87
2021/03/01 10:50:19;;;;;;;12.65;8.70;;;;;;;8.26;66.27;102160.38;5091056;28;20048;-85
2021/03/01 10:52:51;;;;;;;13.77;9.23;;;;;;;8.32;67.04;102149.81;5089780;28;20112;-84
2021/03/01 10:55:18;;;;;;;14.32;9.80;;;;;;;8.33;66.79;102150.69;5086925;28;20501;-86
2021/03/01 10:57:47;;;;;;;16.73;9.10;;;;;;;8.42;65.39;102142.66;5086672;28;20486;-85
2021/03/01 11:00:15;;;;;;;15.38;9.32;;;;;;;8.51;63.78;102150.47;5079894;28;20052;-86
2021/03/01 11:02:43;;;;;;;12.60;9.02;;;;;;;8.60;63.90;102142.47;5091560;28;20043;-88
2021/03/01 11:05:10;;;;;;;14.98;9.52;;;;;;;8.74;63.15;102139.66;5076236;28;20559;-86
2021/03/01 11:07:39;;;;;;;16.50;9.40;;;;;;;8.81;63.16;102144.00;5105656;28;20040;-85
2021/03/01 11:10:06;;;;;;;13.10;9.35;;;;;;;8.96;62.74;102142.94;5089172;28;20044;-85
2021/03/01 11:12:35;;;;;;;14.48;9.20;;;;;;;9.09;63.13;102137.47;5097772;28;20044;-86
2021/03/01 11:15:03;;;;;;;;;;;;;;;9.29;62.96;102123.97;5080345;28;20047;-88
2021/03/01 11:17:30;;;;;;;14.88;9.75;;;;;;;9.41;62.24;102123.81;5090863;28;19931;-86
2021/03/01 11:20:00;;;;;;;23.08;9.43;;;;;;;9.53;62.61;102129.81;5087663;28;20057;-85
2021/03/01 11:22:26;;;;;;;12.77;8.93;;;;;;;9.63;61.46;102115.53;5096064;28;20047;-88
2021/03/01 11:24:53;;;;;;;14.15;8.95;;;;;;;9.65;61.05;102113.75;5084636;28;20066;-87
2021/03/01 11:27:19;;;;;;;15.98;9.43;;;;;;;9.72;61.49;102115.41;5102550;28;20028;-85
2021/03/01 11:29:48;;;;;;;15.05;9.55;;;;;;;9.72;60.90;102115.41;5069709;28;20052;-86
2021/03/01 11:32:15;;;;;;;13.82;10.13;;;;;;;9.76;61.40;102106.50;5091384;28;20036;-85
2021/03/01 11:34:47;;;;;;;13.73;9.38;;;;;;;9.88;60.13;102101.03;5097765;28;20071;-86
2021/03/01 11:37:27;;;;;;;15.40;9.70;;;;;;;10.07;60.14;102098.94;5070449;28;20591;-85